Time;durP1;ratioP1;P1;durP2;ratioP2;P2;SDS_P1;SDS_P2;PMS_P1;PMS_P2;Temp;Humidity;BMP_temperature;BMP_pressure;BME280_temperature;BME280_humidity;BME280_pressure;Samples;Min_cycle;Max_cycle;Signal;HPM_P1;HPM_P2
2024/01/02 00:01:03;;;;;;;0.60;0.60;;;;;231.90;258443.00;;;;5115961;28;20194;-61
2024/01/02 00:03:30;;;;;;;0.60;0.60;;;;;231.90;258443.00;;;;5115145;28;20222;-60
2024/01/02 00:05:58;;;;;;;0.60;0.60;;;;;231.90;258443.00;;;;5115865;28;20214;-60
2024/01/02 00:08:25;;;;;;;0.60;0.60;;;;;231.90;258443.00;;;;5116003;28;20200;-60
2024/01/02 00:10:53;;;;;;;2.13;1.00;;;;;231.90;258443.00;;;;5116175;28;20197;-61
2024/01/02 00:13:20;;;;;;;0.80;0.80;;;;;231.90;258443.00;;;;5115753;28;20221;-60
2024/01/02 00:15:49;;;;;;;0.60;0.60;;;;;231.90;258443.00;;;;5115694;28;20190;-60
2024/01/02 00:18:16;;;;;;;16.53;1.47;;;;;231.90;258443.00;;;;5115654;28;20219;-61
2024/01/02 00:20:43;;;;;;;0.60;0.60;;;;;231.90;258443.00;;;;5115535;28;20196;-60
2024/01/02 00:23:11;;;;;;;2.67;0.90;;;;;231.90;258443.00;;;;5116014;28;20289;-60
2024/01/02 00:25:39;;;;;;;0.60;0.60;;;;;231.90;258443.00;;;;5116090;28;20285;-60
2024/01/02 00:28:06;;;;;;;0.60;0.60;;;;;231.90;258443.00;;;;5116360;28;20194;-60
2024/01/02 00:30:34;;;;;;;0.87;0.87;;;;;231.90;258443.00;;;;5116159;28;20202;-60
2024/01/02 00:33:03;;;;;;;0.70;0.70;;;;;231.90;258443.00;;;;5115453;28;20210;-61
2024/01/02 00:35:31;;;;;;;0.53;0.53;;;;;231.90;258443.00;;;;5115670;28;20186;-61
2024/01/02 00:37:58;;;;;;;1.00;1.00;;;;;231.90;258443.00;;;;5115832;28;20199;-60
2024/01/02 00:40:26;;;;;;;0.60;0.60;;;;;231.90;258443.00;;;;5115496;28;20204;-60
2024/01/02 00:42:53;;;;;;;0.83;0.83;;;;;231.90;258443.00;;;;5115611;28;20680;-60
2024/01/02 00:45:21;;;;;;;0.60;0.60;;;;;231.90;258443.00;;;;5115029;28;20210;-61
2024/01/02 00:47:48;;;;;;;1.13;0.80;;;;;231.90;258443.00;;;;5115042;28;20190;-60
2024/01/02 00:50:17;;;;;;;0.50;0.50;;;;;231.90;258443.00;;;;5115226;28;20554;-60
2024/01/02 00:52:45;;;;;;;0.60;0.60;;;;;231.90;258443.00;;;;5115043;28;20217;-61
2024/01/02 00:55:12;;;;;;;0.57;0.57;;;;;231.90;258443.00;;;;5114910;28;20616;-60
2024/01/02 00:57:40;;;;;;;0.60;0.60;;;;;231.90;258443.00;;;;5114997;28;20186;-60
2024/01/02 01:00:08;;;;;;;0.80;0.80;;;;;231.90;258443.00;;;;5115112;28;20199;-60
2024/01/02 01:02:36;;;;;;;0.70;0.70;;;;;231.90;258443.00;;;;5114821;28;20217;-60
2024/01/02 01:05:03;;;;;;;0.90;0.90;;;;;231.90;258443.00;;;;5114992;28;20219;-60
2024/01/02 01:07:32;;;;;;;0.97;0.97;;;;;231.90;258443.00;;;;5115009;28;20548;-60
2024/01/02 01:10:00;;;;;;;0.70;0.70;;;;;231.90;258443.00;;;;5114851;28;20546;-60
2024/01/02 01:12:27;;;;;;;0.70;0.70;;;;;231.90;258443.00;;;;5114528;28;20217;-60
2024/01/02 01:14:54;;;;;;;0.77;0.77;;;;;231.90;258443.00;;;;5113650;28;20184;-60
2024/01/02 01:17:22;;;;;;;0.60;0.60;;;;;231.90;258443.00;;;;5114708;28;20190;-60
2024/01/02 01:19:49;;;;;;;0.90;0.90;;;;;231.90;258443.00;;;;5114433;28;20248;-60
2024/01/02 01:22:18;;;;;;;1.20;1.10;;;;;231.90;258443.00;;;;5114195;28;20222;-60
2024/01/02 01:24:47;;;;;;;0.60;0.60;;;;;231.90;258443.00;;;;5114162;28;20195;-60
2024/01/02 01:27:14;;;;;;;0.50;0.50;;;;;231.90;258443.00;;;;5114289;28;20545;-60
2024/01/02 01:29:41;;;;;;;0.57;0.57;;;;;231.90;258443.00;;;;5114247;28;20201;-60
2024/01/02 01:32:10;;;;;;;0.60;0.60;;;;;231.90;258443.00;;;;5114584;28;20621;-60
2024/01/02 01:34:38;;;;;;;0.53;0.53;;;;;231.90;258443.00;;;;5114139;28;20553;-61
2024/01/02 01:37:05;;;;;;;0.50;0.50;;;;;231.90;258443.00;;;;5114727;28;20545;-60
2024/01/02 01:39:35;;;;;;;0.53;0.53;;;;;231.90;258443.00;;;;5114490;28;20523;-60
2024/01/02 01:42:04;;;;;;;0.60;0.60;;;;;231.90;258443.00;;;;5113900;28;20263;-60
2024/01/02 01:44:31;;;;;;;1.23;0.80;;;;;231.90;258443.00;;;;5113946;28;20206;-60
2024/01/02 01:46:59;;;;;;;0.50;0.50;;;;;231.90;258443.00;;;;5114182;28;20562;-60
2024/01/02 01:49:27;;;;;;;0.70;0.70;;;;;231.90;258443.00;;;;5113748;28;20511;-60
2024/01/02 01:51:56;;;;;;;0.60;0.60;;;;;231.90;258443.00;;;;5113689;28;20210;-60
2024/01/02 01:54:23;;;;;;;0.53;0.53;;;;;231.90;258443.00;;;;5113838;28;20191;-60
2024/01/02 01:56:52;;;;;;;0.50;0.50;;;;;231.90;258443.00;;;;5113743;28;20221;-60
2024/01/02 01:59:21;;;;;;;0.60;0.60;;;;;231.90;258443.00;;;;5113962;28;20187;-60
2024/01/02 02:01:50;;;;;;;0.70;0.70;;;;;231.90;258443.00;;;;5113994;28;20266;-60
2024/01/02 02:04:18;;;;;;;0.70;0.70;;;;;231.90;258443.00;;;;5114351;28;20200;-60
2024/01/02 02:06:45;;;;;;;0.60;0.60;;;;;231.90;258443.00;;;;5113673;28;20224;-60
2024/01/02 02:09:13;;;;;;;0.60;0.60;;;;;231.90;258443.00;;;;5114172;28;20190;-60
2024/01/02 02:11:40;;;;;;;0.60;0.60;;;;;231.90;258443.00;;;;5113462;28;20225;-60
2024/01/02 02:14:09;;;;;;;0.60;0.60;;;;;231.90;258443.00;;;;5113567;28;20195;-60
2024/01/02 02:16:41;;;;;;;1.27;1.00;;;;;231.90;258443.00;;;;5113593;28;20186;-60
2024/01/02 02:19:09;;;;;;;0.60;0.60;;;;;231.90;258443.00;;;;5113850;28;20201;-60
2024/01/02 02:21:37;;;;;;;0.50;0.50;;;;;231.90;258443.00;;;;5113392;28;20659;-60
2024/01/02 02:24:06;;;;;;;0.70;0.70;;;;;231.90;258443.00;;;;5113513;28;20195;-59
2024/01/02 02:26:33;;;;;;;0.60;0.60;;;;;231.90;258443.00;;;;5117455;28;20243;-59
2024/01/02 02:29:01;;;;;;;0.70;0.70;;;;;231.90;258443.00;;;;5118052;28;20197;-59
2024/01/02 02:31:28;;;;;;;0.53;0.53;;;;;231.90;258443.00;;;;5118034;28;20217;-59
2024/01/02 02:33:56;;;;;;;0.53;0.53;;;;;231.90;258443.00;;;;5117657;28;20624;-59
2024/01/02 02:36:23;;;;;;;0.70;0.70;;;;;231.90;258443.00;;;;5117603;28;20606;-59
2024/01/02 02:38:50;;;;;;;0.90;0.90;;;;;231.90;258443.00;;;;5117599;28;20192;-59
2024/01/02 02:41:19;;;;;;;0.50;0.50;;;;;231.90;258443.00;;;;5117541;28;20662;-62
2024/01/02 02:43:47;;;;;;;0.60;0.60;;;;;231.90;258443.00;;;;5117453;28;20196;-60
2024/01/02 02:46:14;;;;;;;0.60;0.60;;;;;231.90;258443.00;;;;5117379;28;20267;-59
2024/01/02 02:48:41;;;;;;;0.50;0.50;;;;;231.90;258443.00;;;;5117667;28;20209;-59
2024/01/02 02:51:10;;;;;;;0.60;0.60;;;;;231.90;258443.00;;;;5117516;28;20200;-59
2024/01/02 02:53:38;;;;;;;0.60;0.60;;;;;231.90;258443.00;;;;5117322;28;20213;-59
2024/01/02 02:56:05;;;;;;;0.60;0.60;;;;;231.90;258443.00;;;;5117221;28;20194;-59
2024/01/02 02:58:34;;;;;;;0.60;0.60;;;;;231.90;258443.00;;;;5117306;28;20186;-59
2024/01/02 03:01:02;;;;;;;0.80;0.80;;;;;231.90;258443.00;;;;5117200;28;20190;-59
2024/01/02 03:03:30;;;;;;;0.60;0.60;;;;;231.90;258443.00;;;;5117173;28;20234;-59
2024/01/02 03:05:57;;;;;;;0.60;0.60;;;;;231.90;258443.00;;;;5117260;28;20633;-59
2024/01/02 03:08:24;;;;;;;0.60;0.60;;;;;231.90;258443.00;;;;5117029;28;20196;-59
2024/01/02 03:10:56;;;;;;;0.60;0.60;;;;;231.90;258443.00;;;;5117954;28;20193;-59
2024/01/02 03:13:23;;;;;;;0.60;0.60;;;;;231.90;258443.00;;;;5119429;28;20211;-59
2024/01/02 03:15:52;;;;;;;0.70;0.70;;;;;231.90;258443.00;;;;5118896;28;20593;-60
2024/01/02 03:18:20;;;;;;;0.60;0.60;;;;;231.90;258443.00;;;;5117555;28;20190;-59
2024/01/02 03:20:48;;;;;;;0.60;0.60;;;;;231.90;258443.00;;;;5117271;28;20291;-60
2024/01/02 03:23:16;;;;;;;0.83;0.80;;;;;231.90;258443.00;;;;5098877;28;20308;-60
2024/01/02 03:25:43;;;;;;;0.60;0.60;;;;;231.90;258443.00;;;;5117083;28;20686;-60
2024/01/02 03:28:11;;;;;;;0.60;0.60;;;;;231.90;258443.00;;;;5115498;28;20209;-61
2024/01/02 03:30:40;;;;;;;0.60;0.60;;;;;231.90;258443.00;;;;5116594;28;20188;-60
2024/01/02 03:33:09;;;;;;;0.63;0.63;;;;;231.90;258443.00;;;;5116653;28;20210;-60
2024/01/02 03:35:36;;;;;;;0.60;0.60;;;;;231.90;258443.00;;;;5116967;28;20196;-60
2024/01/02 03:38:04;;;;;;;0.60;0.60;;;;;231.90;258443.00;;;;5115376;28;20193;-60
2024/01/02 03:40:31;;;;;;;0.60;0.60;;;;;231.90;258443.00;;;;5117389;28;20190;-60
2024/01/02 03:42:58;;;;;;;0.70;0.70;;;;;231.90;258443.00;;;;5117204;28;20210;-60
2024/01/02 03:45:26;;;;;;;0.60;0.60;;;;;231.90;258443.00;;;;5116199;28;20190;-60
2024/01/02 03:47:53;;;;;;;0.97;0.97;;;;;231.90;258443.00;;;;5116118;28;20653;-60
2024/01/02 03:50:22;;;;;;;0.70;0.70;;;;;231.90;258443.00;;;;5116763;28;20281;-60
2024/01/02 03:52:49;;;;;;;0.50;0.50;;;;;231.90;258443.00;;;;5116107;28;20222;-60
2024/01/02 03:55:16;;;;;;;0.60;0.60;;;;;231.90;258443.00;;;;5116403;28;20527;-61
2024/01/02 03:57:44;;;;;;;0.60;0.60;;;;;231.90;258443.00;;;;5114814;28;20187;-61
2024/01/02 04:00:13;;;;;;;0.60;0.60;;;;;231.90;258443.00;;;;5116038;28;20546;-60
2024/01/02 04:02:40;;;;;;;0.60;0.60;;;;;231.90;258443.00;;;;5115795;28;20241;-61
2024/01/02 04:05:09;;;;;;;0.60;0.60;;;;;231.90;258443.00;;;;5116243;28;20197;-60
2024/01/02 04:07:37;;;;;;;0.60;0.60;;;;;231.90;258443.00;;;;5116395;28;20206;-60
2024/01/02 04:10:06;;;;;;;0.60;0.60;;;;;231.90;258443.00;;;;5115894;28;20186;-60
2024/01/02 04:12:33;;;;;;;0.60;0.60;;;;;231.90;258443.00;;;;5115960;28;20210;-60
2024/01/02 04:15:01;;;;;;;0.60;0.60;;;;;231.90;258443.00;;;;5115797;28;20190;-60
2024/01/02 04:17:28;;;;;;;0.60;0.60;;;;;231.90;258443.00;;;;5116053;28;20183;-60
2024/01/02 04:19:55;;;;;;;0.60;0.60;;;;;231.90;258443.00;;;;5115582;28;20193;-60
2024/01/02 04:22:23;;;;;;;0.50;0.50;;;;;231.90;258443.00;;;;5115528;28;20683;-60
2024/01/02 04:24:52;;;;;;;0.60;0.60;;;;;231.90;258443.00;;;;5115428;28;20186;-61
2024/01/02 04:27:19;;;;;;;0.60;0.60;;;;;231.90;258443.00;;;;5115783;28;20233;-60
2024/01/02 04:29:46;;;;;;;0.60;0.60;;;;;231.90;258443.00;;;;5115545;28;20190;-60
2024/01/02 04:32:15;;;;;;;0.60;0.60;;;;;231.90;258443.00;;;;5115566;28;20692;-60
2024/01/02 04:34:42;;;;;;;0.70;0.70;;;;;231.90;258443.00;;;;5115437;28;20186;-60
2024/01/02 04:37:09;;;;;;;0.53;0.53;;;;;231.90;258443.00;;;;5115326;28;20360;-60
2024/01/02 04:39:37;;;;;;;0.60;0.60;;;;;231.90;258443.00;;;;5115465;28;20567;-60
2024/01/02 04:42:06;;;;;;;0.60;0.60;;;;;231.90;258443.00;;;;5115258;28;20220;-60
2024/01/02 04:44:33;;;;;;;0.60;0.60;;;;;231.90;258443.00;;;;5115202;28;20550;-59
2024/01/02 04:47:01;;;;;;;0.60;0.60;;;;;231.90;258443.00;;;;5115391;28;20213;-59
2024/01/02 04:49:28;;;;;;;0.60;0.60;;;;;231.90;258443.00;;;;5114774;28;20194;-59
2024/01/02 04:51:55;;;;;;;0.60;0.60;;;;;231.90;258443.00;;;;5115233;28;20225;-60
2024/01/02 04:54:23;;;;;;;0.60;0.60;;;;;231.90;258443.00;;;;5115080;28;20186;-59
2024/01/02 04:56:50;;;;;;;0.60;0.60;;;;;231.90;258443.00;;;;5114892;28;20193;-59
2024/01/02 04:59:18;;;;;;;0.63;0.63;;;;;231.90;258443.00;;;;5113539;28;20244;-60
2024/01/02 05:01:45;;;;;;;0.60;0.60;;;;;231.90;258443.00;;;;5115175;28;20224;-60
2024/01/02 05:04:13;;;;;;;0.60;0.60;;;;;231.90;258443.00;;;;5114804;28;20657;-60
2024/01/02 05:06:40;;;;;;;0.60;0.60;;;;;231.90;258443.00;;;;5114576;28;20217;-60
2024/01/02 05:09:08;;;;;;;0.67;0.67;;;;;231.90;258443.00;;;;5114707;28;20190;-60
2024/01/02 05:11:37;;;;;;;0.50;0.50;;;;;231.90;258443.00;;;;5114517;28;20236;-61
2024/01/02 05:14:05;;;;;;;0.60;0.60;;;;;231.90;258443.00;;;;5114508;28;20182;-60
2024/01/02 05:16:33;;;;;;;0.60;0.60;;;;;231.90;258443.00;;;;5114709;28;20549;-60
2024/01/02 05:19:01;;;;;;;0.60;0.60;;;;;231.90;258443.00;;;;5114761;28;20301;-60
2024/01/02 05:21:28;;;;;;;0.60;0.60;;;;;231.90;258443.00;;;;5114661;28;20197;-59
2024/01/02 05:23:55;;;;;;;0.60;0.60;;;;;231.90;258443.00;;;;5114966;28;20198;-59
2024/01/02 05:26:23;;;;;;;0.50;0.50;;;;;231.90;258443.00;;;;5114708;28;20229;-59
2024/01/02 05:28:50;;;;;;;0.60;0.60;;;;;231.90;258443.00;;;;5096172;28;20227;-59
2024/01/02 05:31:18;;;;;;;0.60;0.60;;;;;231.90;258443.00;;;;5114281;28;20196;-59
2024/01/02 05:33:46;;;;;;;0.60;0.60;;;;;231.90;258443.00;;;;5114225;28;20681;-59
2024/01/02 05:36:14;;;;;;;0.60;0.60;;;;;231.90;258443.00;;;;5114406;28;20194;-60
2024/01/02 05:38:41;;;;;;;0.60;0.60;;;;;231.90;258443.00;;;;5114308;28;20661;-59
2024/01/02 05:41:09;;;;;;;0.60;0.60;;;;;231.90;258443.00;;;;5114434;28;20201;-59
2024/01/02 05:43:36;;;;;;;0.60;0.60;;;;;231.90;258443.00;;;;5114247;28;20271;-60
2024/01/02 05:46:05;;;;;;;0.60;0.60;;;;;231.90;258443.00;;;;5114497;28;20194;-59
2024/01/02 05:48:32;;;;;;;0.60;0.60;;;;;231.90;258443.00;;;;5114799;28;20625;-60
2024/01/02 05:51:04;;;;;;;0.60;0.60;;;;;231.90;258443.00;;;;5114399;28;20655;-60
2024/01/02 05:53:31;;;;;;;0.60;0.60;;;;;231.90;258443.00;;;;5095701;28;20237;-60
2024/01/02 05:55:58;;;;;;;0.60;0.60;;;;;231.90;258443.00;;;;5113921;28;20188;-60
2024/01/02 05:58:26;;;;;;;0.57;0.57;;;;;231.90;258443.00;;;;5112644;28;20268;-62
2024/01/02 06:00:53;;;;;;;0.60;0.60;;;;;231.90;258443.00;;;;5112022;28;20196;-60
2024/01/02 06:03:21;;;;;;;0.60;0.60;;;;;231.90;258443.00;;;;5096457;28;20681;-61
2024/01/02 06:05:48;;;;;;;0.53;0.53;;;;;231.90;258443.00;;;;5113760;28;20193;-61
2024/01/02 06:08:17;;;;;;;0.50;0.50;;;;;231.90;258443.00;;;;5113631;28;20209;-60
2024/01/02 06:10:44;;;;;;;0.80;0.80;;;;;231.90;258443.00;;;;5113981;28;20534;-60
2024/01/02 06:13:13;;;;;;;0.50;0.50;;;;;231.90;258443.00;;;;5113624;28;20210;-60
2024/01/02 06:15:40;;;;;;;0.57;0.57;;;;;231.90;258443.00;;;;5113604;28;20197;-60
2024/01/02 06:18:08;;;;;;;0.50;0.50;;;;;231.90;258443.00;;;;5113639;28;20208;-62
2024/01/02 06:20:35;;;;;;;0.60;0.60;;;;;231.90;258443.00;;;;5113561;28;20273;-61
2024/01/02 06:23:03;;;;;;;0.60;0.60;;;;;231.90;258443.00;;;;5113555;28;20572;-60
2024/01/02 06:25:32;;;;;;;0.60;0.60;;;;;231.90;258443.00;;;;5113886;28;20631;-60
2024/01/02 06:28:00;;;;;;;0.60;0.60;;;;;231.90;258443.00;;;;5118308;28;20218;-59
2024/01/02 06:30:27;;;;;;;0.60;0.60;;;;;231.90;258443.00;;;;5115418;28;20190;-59
2024/01/02 06:32:54;;;;;;;0.60;0.60;;;;;231.90;258443.00;;;;5115388;28;20213;-61
2024/01/02 06:35:22;;;;;;;0.63;0.63;;;;;231.90;258443.00;;;;5113605;28;20222;-60
2024/01/02 06:37:49;;;;;;;0.60;0.60;;;;;231.90;258443.00;;;;5113490;28;20197;-60
2024/01/02 06:40:17;;;;;;;0.50;0.50;;;;;231.90;258443.00;;;;5113546;28;20199;-59
2024/01/02 06:42:45;;;;;;;1.70;1.60;;;;;231.90;258443.00;;;;5113324;28;20214;-59
2024/01/02 06:45:13;;;;;;;0.60;0.60;;;;;231.90;258443.00;;;;5113269;28;20197;-59
2024/01/02 06:47:40;;;;;;;0.60;0.60;;;;;231.90;258443.00;;;;5113312;28;20210;-59
2024/01/02 06:50:08;;;;;;;4.57;2.13;;;;;231.90;258443.00;;;;5113213;28;20190;-61
2024/01/02 06:52:36;;;;;;;1.07;1.07;;;;;231.90;258443.00;;;;5113112;28;20210;-61
2024/01/02 06:55:04;;;;;;;0.50;0.50;;;;;231.90;258443.00;;;;5113147;28;20190;-59
2024/01/02 06:57:32;;;;;;;0.60;0.60;;;;;231.90;258443.00;;;;5095078;28;20190;-61
2024/01/02 07:00:00;;;;;;;0.60;0.60;;;;;231.90;258443.00;;;;5095036;28;20650;-61
2024/01/02 07:02:29;;;;;;;0.60;0.60;;;;;231.90;258443.00;;;;5113473;28;20237;-61
2024/01/02 07:04:57;;;;;;;0.50;0.50;;;;;231.90;258443.00;;;;5113515;28;20190;-61
2024/01/02 07:07:24;;;;;;;1.53;1.33;;;;;231.90;258443.00;;;;5094692;28;20210;-60
2024/01/02 07:09:52;;;;;;;0.60;0.60;;;;;231.90;258443.00;;;;5113156;28;20631;-60
2024/01/02 07:12:19;;;;;;;0.50;0.50;;;;;231.90;258443.00;;;;5115657;28;20220;-60
2024/01/02 07:14:47;;;;;;;0.57;0.57;;;;;231.90;258443.00;;;;5116867;28;20202;-60
2024/01/02 07:17:19;;;;;;;0.70;0.70;;;;;231.90;258443.00;;;;5116904;28;20183;-60
2024/01/02 07:19:46;;;;;;;0.50;0.50;;;;;231.90;258443.00;;;;5116946;28;20619;-60
2024/01/02 07:22:14;;;;;;;0.60;0.60;;;;;231.90;258443.00;;;;5116692;28;20611;-60
2024/01/02 07:24:41;;;;;;;0.60;0.60;;;;;231.90;258443.00;;;;5116968;28;20194;-60
2024/01/02 07:27:09;;;;;;;0.50;0.50;;;;;231.90;258443.00;;;;5116747;28;20206;-60
2024/01/02 07:29:36;;;;;;;0.60;0.60;;;;;231.90;258443.00;;;;5116718;28;20193;-59
2024/01/02 07:32:04;;;;;;;0.60;0.60;;;;;231.90;258443.00;;;;5116463;28;20206;-60
2024/01/02 07:34:32;;;;;;;0.60;0.60;;;;;231.90;258443.00;;;;5116696;28;20242;-60
2024/01/02 07:37:00;;;;;;;0.80;0.80;;;;;231.90;258443.00;;;;5116519;28;20184;-60
2024/01/02 07:39:27;;;;;;;0.63;0.63;;;;;231.90;258443.00;;;;5116475;28;20190;-60
2024/01/02 07:41:54;;;;;;;0.50;0.50;;;;;231.90;258443.00;;;;5116311;28;20207;-61
2024/01/02 07:44:22;;;;;;;0.70;0.70;;;;;231.90;258443.00;;;;5116850;28;20530;-60
2024/01/02 07:46:49;;;;;;;0.60;0.60;;;;;231.90;258443.00;;;;5097934;28;20243;-60
2024/01/02 07:49:17;;;;;;;0.60;0.60;;;;;231.90;258443.00;;;;5116208;28;20576;-59
2024/01/02 07:51:47;;;;;;;0.90;0.90;;;;;231.90;258443.00;;;;5116252;28;20218;-60
2024/01/02 07:54:14;;;;;;;0.73;0.73;;;;;231.90;258443.00;;;;5116209;28;20648;-59
2024/01/02 07:56:41;;;;;;;0.63;0.63;;;;;231.90;258443.00;;;;5116061;28;20186;-59
2024/01/02 07:59:10;;;;;;;0.50;0.50;;;;;231.90;258443.00;;;;5116075;28;20544;-60
2024/01/02 08:01:37;;;;;;;0.60;0.60;;;;;231.90;258443.00;;;;5116107;28;20194;-61
2024/01/02 08:04:05;;;;;;;0.50;0.50;;;;;231.90;258443.00;;;;5116536;28;20196;-60
2024/01/02 08:06:32;;;;;;;0.83;0.83;;;;;231.90;258443.00;;;;5116018;28;20193;-60
2024/01/02 08:09:01;;;;;;;0.60;0.60;;;;;231.90;258443.00;;;;5115908;28;20569;-60
2024/01/02 08:11:28;;;;;;;0.50;0.50;;;;;231.90;258443.00;;;;5116312;28;20197;-60
2024/01/02 08:13:56;;;;;;;0.60;0.60;;;;;231.90;258443.00;;;;5115773;28;20196;-60
2024/01/02 08:16:23;;;;;;;0.60;0.60;;;;;231.90;258443.00;;;;5115770;28;20214;-60
2024/01/02 08:18:51;;;;;;;0.50;0.50;;;;;231.90;258443.00;;;;5115737;28;20273;-61
2024/01/02 08:21:18;;;;;;;0.53;0.53;;;;;231.90;258443.00;;;;5115486;28;20198;-61
2024/01/02 08:23:47;;;;;;;0.60;0.60;;;;;231.90;258443.00;;;;5115013;28;20359;-61
2024/01/02 08:26:16;;;;;;;0.67;0.67;;;;;231.90;258443.00;;;;5115830;28;20248;-60
2024/01/02 08:28:43;;;;;;;0.90;0.90;;;;;231.90;258443.00;;;;5115390;28;20221;-59
2024/01/02 08:31:11;;;;;;;0.57;0.57;;;;;231.90;258443.00;;;;5115463;28;20198;-59
2024/01/02 08:33:38;;;;;;;0.83;0.83;;;;;231.90;258443.00;;;;5115372;28;20223;-59
2024/01/02 08:36:07;;;;;;;0.50;0.50;;;;;231.90;258443.00;;;;5115708;28;20194;-60
2024/01/02 08:38:35;;;;;;;0.60;0.60;;;;;231.90;258443.00;;;;5097090;28;20228;-61
2024/01/02 08:41:02;;;;;;;0.87;0.87;;;;;231.90;258443.00;;;;5115849;28;20702;-59
2024/01/02 08:43:31;;;;;;;0.50;0.50;;;;;231.90;258443.00;;;;5115228;28;20205;-60
2024/01/02 08:45:59;;;;;;;0.60;0.60;;;;;231.90;258443.00;;;;5115232;28;20252;-59
2024/01/02 08:48:26;;;;;;;0.70;0.70;;;;;231.90;258443.00;;;;5114910;28;20215;-60
2024/01/02 08:50:54;;;;;;;0.50;0.50;;;;;231.90;258443.00;;;;5115416;28;20181;-60
2024/01/02 08:53:21;;;;;;;0.60;0.60;;;;;231.90;258443.00;;;;5114988;28;20213;-60
2024/01/02 08:55:48;;;;;;;0.50;0.50;;;;;231.90;258443.00;;;;5113658;28;20234;-60
2024/01/02 08:58:16;;;;;;;0.60;0.60;;;;;231.90;258443.00;;;;5115156;28;20186;-61
2024/01/02 09:00:45;;;;;;;0.70;0.70;;;;;231.90;258443.00;;;;5113582;28;20194;-61
2024/01/02 09:03:12;;;;;;;0.47;0.47;;;;;231.90;258443.00;;;;5114698;28;20701;-61
2024/01/02 09:05:39;;;;;;;0.60;0.60;;;;;231.90;258443.00;;;;5115329;28;20653;-61
2024/01/02 09:08:07;;;;;;;0.60;0.60;;;;;231.90;258443.00;;;;5114770;28;20210;-61
2024/01/02 09:10:35;;;;;;;0.57;0.57;;;;;231.90;258443.00;;;;5116624;28;20575;-61
2024/01/02 09:13:03;;;;;;;0.57;0.57;;;;;231.90;258443.00;;;;5115945;28;20218;-58
2024/01/02 09:15:31;;;;;;;0.60;0.60;;;;;231.90;258443.00;;;;5116707;28;20618;-58
2024/01/02 09:17:59;;;;;;;0.50;0.50;;;;;231.90;258443.00;;;;5116152;28;20216;-59
2024/01/02 09:20:27;;;;;;;0.60;0.60;;;;;231.90;258443.00;;;;5114568;28;20204;-59
2024/01/02 09:22:54;;;;;;;0.60;0.60;;;;;231.90;258443.00;;;;5115093;28;20285;-60
2024/01/02 09:25:27;;;;;;;0.60;0.60;;;;;231.90;258443.00;;;;5115906;28;20197;-61
2024/01/02 09:27:58;;;;;;;0.50;0.50;;;;;231.90;258443.00;;;;5115721;28;20216;-61
2024/01/02 09:30:25;;;;;;;0.63;0.63;;;;;231.90;258443.00;;;;5115222;28;20248;-61
2024/01/02 09:32:53;;;;;;;0.50;0.50;;;;;231.90;258443.00;;;;5114524;28;20217;-61
2024/01/02 09:35:22;;;;;;;0.60;0.60;;;;;231.90;258443.00;;;;5113306;28;20193;-61
2024/01/02 09:37:50;;;;;;;1.70;1.00;;;;;231.90;258443.00;;;;5114271;28;20193;-61
2024/01/02 09:40:35;;;;;;;0.50;0.50;;;;;231.90;258443.00;;;;5114071;28;20199;-61
2024/01/02 09:43:11;;;;;;;0.70;0.70;;;;;231.90;258443.00;;;;5114124;28;20208;-61
2024/01/02 09:45:50;;;;;;;0.57;0.57;;;;;231.90;258443.00;;;;5095954;28;20208;-61
2024/01/02 09:51:06;;;;;;;0.60;0.60;;;;;231.90;258443.00;;;;5093077;28;20229;-60
2024/01/02 09:54:00;;;;;;;0.50;0.50;;;;;231.90;258443.00;;;;5093591;28;20213;-60
2024/01/02 09:56:37;;;;;;;0.60;0.60;;;;;231.90;258443.00;;;;5093492;28;20244;-61
2024/01/02 09:59:14;;;;;;;0.50;0.50;;;;;231.90;258443.00;;;;5094031;28;20181;-60
2024/01/02 10:01:58;;;;;;;0.60;0.60;;;;;231.90;258443.00;;;;5093452;28;20717;-59
2024/01/02 10:04:43;;;;;;;0.50;0.50;;;;;231.90;258443.00;;;;5093403;28;20190;-59
2024/01/02 10:07:53;;;;;;;0.60;0.60;;;;;231.90;258443.00;;;;5093726;28;20602;-60
2024/01/02 10:10:34;;;;;;;0.50;0.50;;;;;231.90;258443.00;;;;5093326;28;20197;-60
2024/01/02 10:13:18;;;;;;;0.70;0.70;;;;;231.90;258443.00;;;;5093555;28;20214;-60
2024/01/02 10:15:59;;;;;;;0.50;0.50;;;;;231.90;258443.00;;;;5093305;28;20344;-60
2024/01/02 10:18:38;;;;;;;0.60;0.60;;;;;231.90;258443.00;;;;5093595;28;20177;-60
2024/01/02 10:21:18;;;;;;;0.90;0.60;;;;;231.90;258443.00;;;;5093645;28;20680;-60
2024/01/02 10:23:55;;;;;;;0.60;0.60;;;;;231.90;258443.00;;;;5093301;28;20179;-60
2024/01/02 10:26:27;;;;;;;0.50;0.50;;;;;231.90;258443.00;;;;5093613;28;20182;-60
2024/01/02 10:29:01;;;;;;;0.57;0.57;;;;;231.90;258443.00;;;;5093317;28;20195;-60
2024/01/02 10:31:40;;;;;;;0.60;0.60;;;;;231.90;258443.00;;;;5093464;28;20182;-60
2024/01/02 10:34:18;;;;;;;0.50;0.50;;;;;231.90;258443.00;;;;5093711;28;20182;-59
2024/01/02 10:36:56;;;;;;;0.50;0.50;;;;;231.90;258443.00;;;;5093425;28;20258;-59
2024/01/02 10:39:31;;;;;;;0.53;0.53;;;;;231.90;258443.00;;;;5093499;28;20661;-60
2024/01/02 10:42:26;;;;;;;0.60;0.60;;;;;231.90;258443.00;;;;5093439;28;20296;-60
2024/01/02 10:45:11;;;;;;;0.50;0.50;;;;;231.90;258443.00;;;;5093392;28;20187;-60
2024/01/02 10:47:52;;;;;;;0.60;0.60;;;;;231.90;258443.00;;;;5096303;28;20259;-60
2024/01/02 10:50:30;;;;;;;0.50;0.50;;;;;231.90;258443.00;;;;5097061;28;20198;-60
2024/01/02 10:53:10;;;;;;;0.60;0.60;;;;;231.90;258443.00;;;;5096819;28;20718;-61
2024/01/02 10:55:48;;;;;;;0.50;0.50;;;;;231.90;258443.00;;;;5097050;28;20175;-60
2024/01/02 10:58:20;;;;;;;0.50;0.50;;;;;231.90;258443.00;;;;5096886;28;20175;-60
2024/01/02 11:00:58;;;;;;;0.60;0.60;;;;;231.90;258443.00;;;;5097384;28;20626;-59
2024/01/02 11:03:28;;;;;;;0.60;0.60;;;;;231.90;258443.00;;;;5096726;28;20215;-59
2024/01/02 11:06:06;;;;;;;0.70;0.70;;;;;231.90;258443.00;;;;5096946;28;20192;-60
2024/01/02 11:08:48;;;;;;;0.60;0.60;;;;;231.90;258443.00;;;;5096830;28;20205;-60
2024/01/02 11:11:17;;;;;;;0.60;0.60;;;;;231.90;258443.00;;;;5097161;28;20183;-60
2024/01/02 11:13:47;;;;;;;0.70;0.70;;;;;231.90;258443.00;;;;5096666;28;20665;-60
2024/01/02 11:16:18;;;;;;;0.60;0.60;;;;;231.90;258443.00;;;;5097532;28;20512;-59
2024/01/02 11:18:51;;;;;;;0.50;0.50;;;;;231.90;258443.00;;;;5096632;28;20178;-59
2024/01/02 11:21:27;;;;;;;0.60;0.60;;;;;231.90;258443.00;;;;5096594;28;20209;-59
2024/01/02 11:23:57;;;;;;;0.70;0.70;;;;;231.90;258443.00;;;;5096742;28;20205;-59
2024/01/02 11:26:29;;;;;;;0.57;0.57;;;;;231.90;258443.00;;;;5096860;28;20200;-59
2024/01/02 11:29:01;;;;;;;0.60;0.60;;;;;231.90;258443.00;;;;5095869;28;20269;-60
2024/01/02 11:31:32;;;;;;;0.50;0.50;;;;;231.90;258443.00;;;;5096184;28;20178;-59
2024/01/02 11:34:11;;;;;;;0.80;0.80;;;;;231.90;258443.00;;;;5096553;28;20187;-59
2024/01/02 11:36:56;;;;;;;0.57;0.57;;;;;231.90;258443.00;;;;5096168;28;20194;-59
2024/01/02 11:39:32;;;;;;;0.50;0.50;;;;;231.90;258443.00;;;;5096098;28;20175;-59
2024/01/02 11:42:09;;;;;;;0.60;0.60;;;;;231.90;258443.00;;;;5096093;28;20583;-59
2024/01/02 11:44:49;;;;;;;0.60;0.60;;;;;231.90;258443.00;;;;5096137;28;20175;-59
2024/01/02 11:47:29;;;;;;;0.60;0.60;;;;;231.90;258443.00;;;;5096404;28;20230;-60
2024/01/02 11:50:03;;;;;;;0.60;0.60;;;;;231.90;258443.00;;;;5095904;28;20216;-59
2024/01/02 11:52:34;;;;;;;0.60;0.60;;;;;231.90;258443.00;;;;5095817;28;20690;-59
2024/01/02 11:55:12;;;;;;;0.50;0.50;;;;;231.90;258443.00;;;;5096215;28;20232;-59
2024/01/02 11:57:51;;;;;;;0.60;0.60;;;;;231.90;258443.00;;;;5094871;28;20186;-59
2024/01/02 12:00:27;;;;;;;0.50;0.50;;;;;231.90;258443.00;;;;5096330;28;20538;-59
2024/01/02 12:03:03;;;;;;;0.70;0.70;;;;;231.90;258443.00;;;;5095554;28;20218;-59
2024/01/02 12:05:39;;;;;;;0.57;0.57;;;;;231.90;258443.00;;;;5095857;28;20178;-60
2024/01/02 12:08:10;;;;;;;0.50;0.50;;;;;231.90;258443.00;;;;5096086;28;20183;-59
2024/01/02 12:10:42;;;;;;;0.50;0.50;;;;;231.90;258443.00;;;;5095628;28;20187;-59
2024/01/02 12:13:20;;;;;;;0.50;0.50;;;;;231.90;258443.00;;;;5095612;28;20215;-60